Time;durP1;ratioP1;P1;durP2;ratioP2;P2;SDS_P1;SDS_P2;PMS_P1;PMS_P2;Temp;Humidity;BMP_temperature;BMP_pressure;BME280_temperature;BME280_humidity;BME280_pressure;Samples;Min_cycle;Max_cycle;Signal;HPM_P1;HPM_P2
2023/11/05 00:00:32;;;;;;;1.17;0.40;;;10.10;91.00;;;;;;5115449;28;20044;-76
2023/11/05 00:02:58;;;;;;;0.85;0.40;;;10.10;91.00;;;;;;5115307;28;20127;-76
2023/11/05 00:05:24;;;;;;;0.80;0.50;;;10.10;91.00;;;;;;5114971;28;20050;-76
2023/11/05 00:07:50;;;;;;;2.58;0.90;;;10.00;91.00;;;;;;5095192;28;20044;-77
2023/11/05 00:10:15;;;;;;;3.05;0.80;;;10.10;91.00;;;;;;5114668;28;20508;-76
2023/11/05 00:12:41;;;;;;;2.13;0.60;;;10.00;91.00;;;;;;5114915;28;20495;-76
2023/11/05 00:15:08;;;;;;;1.98;0.60;;;10.10;90.90;;;;;;5095200;28;20043;-76
2023/11/05 00:17:33;;;;;;;0.80;0.40;;;10.10;90.90;;;;;;5114682;28;20048;-76
2023/11/05 00:20:00;;;;;;;1.40;0.55;;;10.10;90.90;;;;;;5079785;28;20165;-76
2023/11/05 00:22:26;;;;;;;0.73;0.60;;;10.20;90.90;;;;;;5115355;28;20377;-76
2023/11/05 00:24:51;;;;;;;1.70;0.52;;;10.20;90.90;;;;;;5094731;28;20092;-77
2023/11/05 00:27:17;;;;;;;1.77;0.50;;;10.10;90.80;;;;;;5077337;28;20078;-77
2023/11/05 00:29:43;;;;;;;4.28;0.70;;;10.20;90.80;;;;;;5114392;28;20046;-76
2023/11/05 00:32:11;;;;;;;1.17;0.52;;;10.20;90.80;;;;;;5114566;28;20470;-77
2023/11/05 00:34:37;;;;;;;0.90;0.50;;;10.20;90.80;;;;;;5115064;28;20084;-77
2023/11/05 00:37:02;;;;;;;3.65;0.80;;;10.20;90.80;;;;;;5096592;28;20043;-77
2023/11/05 00:39:28;;;;;;;1.27;0.70;;;10.20;90.80;;;;;;5095526;28;20086;-76
2023/11/05 00:41:54;;;;;;;0.73;0.40;;;10.20;90.80;;;;;;5079948;28;20447;-77
2023/11/05 00:44:19;;;;;;;1.45;0.40;;;10.20;90.80;;;;;;5079254;28;20035;-77
2023/11/05 00:46:45;;;;;;;1.88;0.50;;;10.30;90.90;;;;;;5095806;28;20032;-76
2023/11/05 00:49:13;;;;;;;2.42;0.50;;;10.20;90.80;;;;;;5095902;28;20040;-77
2023/11/05 00:51:39;;;;;;;0.98;0.43;;;10.20;90.80;;;;;;5095898;28;20033;-76
2023/11/05 00:54:05;;;;;;;1.95;0.43;;;10.30;90.80;;;;;;5079125;28;20047;-76
2023/11/05 00:56:31;;;;;;;6.45;0.73;;;10.20;90.80;;;;;;5095669;28;20056;-76
2023/11/05 00:58:56;;;;;;;2.22;0.55;;;10.10;90.80;;;;;;5079257;28;20047;-76
2023/11/05 01:01:22;;;;;;;1.00;0.60;;;10.20;90.80;;;;;;5114016;28;20047;-76
2023/11/05 01:03:48;;;;;;;1.90;0.50;;;10.20;90.80;;;;;;5095633;28;20047;-77
2023/11/05 01:06:14;;;;;;;2.60;0.65;;;10.10;90.80;;;;;;5113630;28;20071;-76
2023/11/05 01:08:40;;;;;;;2.25;0.57;;;10.20;90.80;;;;;;5094412;28;20434;-76
2023/11/05 01:11:06;;;;;;;3.08;0.70;;;10.20;91.10;;;;;;5095343;28;20105;-76
2023/11/05 01:13:31;;;;;;;1.98;0.45;;;10.20;90.80;;;;;;5095963;28;20035;-76
2023/11/05 01:15:57;;;;;;;2.22;0.52;;;10.30;90.80;;;;;;5113634;28;20100;-76
2023/11/05 01:18:23;;;;;;;0.68;0.40;;;10.30;90.80;;;;;;5095191;28;20458;-77
2023/11/05 01:20:50;;;;;;;2.17;0.40;;;10.30;90.80;;;;;;5094869;28;20122;-76
2023/11/05 01:23:15;;;;;;;2.70;0.30;;;10.30;90.70;;;;;;5094371;28;20125;-76
2023/11/05 01:25:41;;;;;;;1.00;0.43;;;10.30;90.70;;;;;;5095518;28;20460;-76
2023/11/05 01:28:07;;;;;;;1.08;0.40;;;10.30;90.70;;;;;;5095192;28;20048;-77
2023/11/05 01:30:32;;;;;;;1.25;0.40;;;10.30;90.70;;;;;;5113812;28;20084;-76
2023/11/05 01:32:58;;;;;;;1.48;0.40;;;10.30;90.70;;;;;;5095335;28;20549;-76
2023/11/05 01:35:24;;;;;;;1.40;0.47;;;10.30;90.70;;;;;;5078201;28;20039;-76
2023/11/05 01:37:49;;;;;;;1.55;0.35;;;10.30;90.70;;;;;;5077219;28;20051;-76
2023/11/05 01:40:15;;;;;;;0.30;0.30;;;10.30;90.80;;;;;;5113178;28;20039;-76
2023/11/05 01:42:41;;;;;;;1.25;0.28;;;10.30;90.80;;;;;;5095048;28;20039;-76
2023/11/05 01:45:08;;;;;;;1.30;0.43;;;10.40;90.80;;;;;;5113198;28;20047;-76
2023/11/05 01:47:34;;;;;;;0.30;0.30;;;10.30;90.80;;;;;;5095598;28;20473;-76
2023/11/05 01:50:01;;;;;;;0.85;0.45;;;10.30;90.80;;;;;;5093628;28;20043;-76
2023/11/05 01:52:27;;;;;;;1.02;0.30;;;10.30;90.80;;;;;;5109603;28;20075;-76
2023/11/05 01:54:53;;;;;;;2.22;0.40;;;10.20;90.80;;;;;;5061075;28;20401;-76
2023/11/05 01:57:19;;;;;;;0.88;0.30;;;10.30;90.90;;;;;;5077793;28;20043;-76
2023/11/05 01:59:45;;;;;;;0.63;0.40;;;10.30;90.90;;;;;;5093379;28;20036;-76
2023/11/05 02:02:12;;;;;;;0.75;0.28;;;10.30;90.90;;;;;;5095006;28;20118;-76
2023/11/05 02:04:38;;;;;;;1.35;0.40;;;10.30;90.90;;;;;;5095391;28;20069;-76
2023/11/05 02:07:04;;;;;;;0.20;0.20;;;10.30;91.00;;;;;;5093239;28;20071;-76
2023/11/05 02:09:31;;;;;;;0.52;0.30;;;10.20;91.00;;;;;;5094685;28;20063;-76
2023/11/05 02:11:58;;;;;;;0.98;0.35;;;10.20;91.00;;;;;;5113175;28;20040;-76
2023/11/05 02:14:24;;;;;;;1.95;0.22;;;10.20;91.00;;;;;;5094760;28;20047;-76
2023/11/05 02:16:50;;;;;;;0.25;0.20;;;10.20;91.10;;;;;;5077710;28;20044;-76
2023/11/05 02:19:15;;;;;;;1.23;0.30;;;10.20;91.10;;;;;;5113024;28;20388;-76
2023/11/05 02:21:46;;;;;;;0.32;0.32;;;10.20;91.10;;;;;;5112839;28;20129;-76
2023/11/05 02:24:12;;;;;;;0.85;0.30;;;10.20;91.20;;;;;;5094896;28;20042;-76
2023/11/05 02:26:38;;;;;;;0.45;0.30;;;10.10;91.10;;;;;;5093656;28;20040;-76
2023/11/05 02:29:04;;;;;;;0.65;0.20;;;10.10;91.10;;;;;;5112498;28;20401;-76
2023/11/05 02:31:30;;;;;;;0.50;0.20;;;10.10;91.10;;;;;;5112595;28;20434;-76
2023/11/05 02:33:55;;;;;;;0.90;0.30;;;10.10;91.10;;;;;;5113771;28;20043;-76
2023/11/05 02:36:21;;;;;;;0.40;0.28;;;10.10;91.20;;;;;;5112828;28;20036;-76
2023/11/05 02:38:47;;;;;;;1.23;0.40;;;10.10;91.10;;;;;;5095667;28;20031;-76
2023/11/05 02:41:14;;;;;;;1.20;0.20;;;10.10;91.10;;;;;;5095673;28;20115;-76
2023/11/05 02:43:40;;;;;;;1.05;0.30;;;10.20;91.10;;;;;;5078396;28;20134;-76
2023/11/05 02:46:06;;;;;;;0.77;0.20;;;10.10;91.10;;;;;;5113078;28;20139;-76
2023/11/05 02:48:33;;;;;;;0.80;0.22;;;10.10;91.10;;;;;;5112892;28;20040;-76
2023/11/05 02:50:59;;;;;;;0.47;0.30;;;10.20;91.10;;;;;;5116573;28;20118;-76
2023/11/05 02:53:25;;;;;;;0.20;0.20;;;10.10;91.10;;;;;;5116186;28;20548;-76
2023/11/05 02:55:51;;;;;;;0.20;0.20;;;10.10;91.10;;;;;;5064014;28;20120;-76
2023/11/05 02:58:17;;;;;;;0.13;0.13;;;10.20;91.20;;;;;;5078805;28;20042;-76
2023/11/05 03:00:44;;;;;;;1.13;0.45;;;10.10;91.20;;;;;;5097464;28;20130;-75
2023/11/05 03:03:11;;;;;;;0.90;0.22;;;10.10;91.20;;;;;;5080285;28;20065;-76
2023/11/05 03:05:40;;;;;;;1.10;0.32;;;10.10;91.20;;;;;;5096409;28;20043;-77
2023/11/05 03:08:06;;;;;;;1.17;0.50;;;10.10;91.20;;;;;;5116881;28;20040;-76
2023/11/05 03:10:31;;;;;;;0.25;0.25;;;10.10;91.20;;;;;;5080311;28;20038;-76
2023/11/05 03:12:57;;;;;;;1.60;0.20;;;10.10;91.30;;;;;;5098152;28;20047;-76
2023/11/05 03:15:23;;;;;;;0.85;0.30;;;10.00;91.20;;;;;;5116316;28;20071;-76
2023/11/05 03:17:49;;;;;;;0.68;0.30;;;10.00;91.30;;;;;;5097968;28;20050;-76
2023/11/05 03:20:15;;;;;;;0.73;0.20;;;10.00;91.30;;;;;;5080578;28;20078;-76
2023/11/05 03:22:41;;;;;;;0.25;0.20;;;10.00;91.30;;;;;;5080191;28;20493;-77
2023/11/05 03:25:07;;;;;;;0.20;0.20;;;10.00;91.40;;;;;;5078902;28;20100;-76
2023/11/05 03:27:33;;;;;;;0.20;0.20;;;10.10;91.40;;;;;;5096831;28;20135;-76
2023/11/05 03:30:01;;;;;;;0.17;0.17;;;10.10;91.40;;;;;;5116000;28;20157;-76
2023/11/05 03:32:26;;;;;;;0.35;0.20;;;10.10;91.40;;;;;;5116309;28;20122;-77
2023/11/05 03:34:54;;;;;;;0.17;0.17;;;10.10;91.40;;;;;;5080893;28;20067;-76
2023/11/05 03:37:20;;;;;;;0.20;0.20;;;10.00;91.40;;;;;;5097418;28;20040;-76
2023/11/05 03:39:48;;;;;;;0.47;0.20;;;10.10;91.50;;;;;;5115328;28;20090;-76
2023/11/05 03:42:14;;;;;;;0.30;0.20;;;10.00;91.40;;;;;;5098747;28;20050;-76
2023/11/05 03:44:40;;;;;;;0.10;0.10;;;10.00;91.50;;;;;;5096630;28;20040;-76
2023/11/05 03:47:06;;;;;;;0.10;0.10;;;10.00;91.50;;;;;;5064018;28;20059;-76
2023/11/05 03:49:32;;;;;;;0.13;0.13;;;10.10;91.50;;;;;;5116236;28;20043;-76
2023/11/05 03:51:58;;;;;;;0.20;0.20;;;10.10;91.50;;;;;;5097378;28;20036;-77
2023/11/05 03:54:24;;;;;;;0.22;0.20;;;10.10;91.50;;;;;;5096804;28;20093;-76
2023/11/05 03:56:50;;;;;;;0.10;0.10;;;10.10;91.50;;;;;;5097044;28;20079;-76
2023/11/05 03:59:16;;;;;;;0.32;0.10;;;10.10;91.50;;;;;;5096517;28;20108;-76
2023/11/05 04:01:41;;;;;;;0.20;0.20;;;10.10;91.50;;;;;;5094721;28;20430;-76
2023/11/05 04:04:10;;;;;;;0.38;0.10;;;10.20;91.60;;;;;;5079545;28;20561;-76
2023/11/05 04:06:35;;;;;;;0.45;0.20;;;10.10;91.50;;;;;;5096284;28;20035;-76
2023/11/05 04:09:01;;;;;;;0.25;0.20;;;10.10;91.60;;;;;;5096594;28;20130;-76
2023/11/05 04:11:27;;;;;;;0.40;0.30;;;10.10;91.60;;;;;;5078025;28;20437;-76
2023/11/05 04:13:53;;;;;;;0.20;0.20;;;10.10;91.60;;;;;;5096561;28;20092;-76
2023/11/05 04:16:18;;;;;;;0.10;0.10;;;10.10;91.60;;;;;;5079047;28;20089;-76
2023/11/05 04:18:45;;;;;;;0.50;0.20;;;10.10;91.60;;;;;;5114788;28;20047;-76
2023/11/05 04:21:10;;;;;;;0.10;0.10;;;10.10;91.60;;;;;;5096522;28;20040;-76
2023/11/05 04:23:36;;;;;;;0.10;0.10;;;10.10;91.60;;;;;;5079582;28;20375;-77
2023/11/05 04:26:03;;;;;;;0.40;0.22;;;10.10;91.60;;;;;;5079130;28;20095;-77
2023/11/05 04:28:29;;;;;;;0.30;0.20;;;10.10;91.70;;;;;;5079634;28;20095;-76
2023/11/05 04:30:55;;;;;;;0.20;0.20;;;10.10;91.70;;;;;;5079307;28;20493;-77
2023/11/05 04:33:21;;;;;;;0.10;0.10;;;10.10;91.70;;;;;;5114515;28;20036;-77
2023/11/05 04:35:46;;;;;;;0.10;0.10;;;10.10;91.70;;;;;;5096062;28;20055;-76
2023/11/05 04:38:12;;;;;;;0.20;0.20;;;10.10;91.60;;;;;;5114297;28;20038;-76
2023/11/05 04:40:38;;;;;;;0.40;0.20;;;10.20;91.70;;;;;;5114076;28;20048;-76
2023/11/05 04:43:04;;;;;;;0.20;0.17;;;10.10;91.70;;;;;;5094945;28;20071;-78
2023/11/05 04:45:31;;;;;;;0.13;0.13;;;10.10;91.70;;;;;;5094436;28;20070;-76
2023/11/05 04:47:57;;;;;;;0.55;0.20;;;10.20;91.70;;;;;;5114828;28;20509;-76
2023/11/05 04:50:22;;;;;;;0.35;0.30;;;10.10;91.70;;;;;;5095084;28;20119;-77
2023/11/05 04:52:52;;;;;;;0.40;0.20;;;10.10;91.70;;;;;;5114236;28;20036;-76
2023/11/05 04:55:18;;;;;;;0.10;0.10;;;10.10;91.70;;;;;;5079345;28;20044;-76
2023/11/05 04:57:44;;;;;;;0.43;0.10;;;10.20;91.70;;;;;;5079284;28;20046;-76
2023/11/05 05:00:10;;;;;;;0.10;0.10;;;10.20;91.70;;;;;;5095557;28;20417;-76
2023/11/05 05:02:36;;;;;;;0.73;0.30;;;10.20;91.70;;;;;;5113874;28;20052;-76
2023/11/05 05:05:02;;;;;;;1.00;0.20;;;10.20;91.70;;;;;;5094339;28;20048;-76
2023/11/05 05:07:27;;;;;;;0.13;0.13;;;10.20;91.70;;;;;;5115697;28;20043;-76
2023/11/05 05:09:54;;;;;;;0.20;0.17;;;10.20;91.70;;;;;;5113996;28;20126;-76
2023/11/05 05:12:21;;;;;;;0.20;0.20;;;10.20;91.60;;;;;;5095510;28;20470;-76
2023/11/05 05:14:48;;;;;;;0.22;0.20;;;10.30;91.60;;;;;;5097248;28;20036;-76
2023/11/05 05:17:15;;;;;;;0.20;0.20;;;10.20;91.60;;;;;;5079581;28;20103;-76
2023/11/05 05:19:41;;;;;;;0.10;0.10;;;10.30;91.90;;;;;;5096413;28;20260;-76
2023/11/05 05:22:07;;;;;;;0.10;0.10;;;10.30;91.60;;;;;;5096371;28;20039;-76
2023/11/05 05:24:33;;;;;;;0.30;0.30;;;10.30;91.60;;;;;;5093798;28;20048;-76
2023/11/05 05:26:59;;;;;;;0.20;0.20;;;10.30;91.60;;;;;;5096565;28;20096;-76
2023/11/05 05:29:25;;;;;;;0.17;0.17;;;10.30;91.60;;;;;;5094453;28;20040;-76
2023/11/05 05:31:51;;;;;;;0.30;0.30;;;10.30;91.60;;;;;;5096745;28;20043;-76
2023/11/05 05:34:17;;;;;;;0.10;0.10;;;10.40;91.90;;;;;;5078356;28;20040;-76
2023/11/05 05:36:43;;;;;;;0.20;0.20;;;10.30;91.60;;;;;;5113817;28;21171;-76
2023/11/05 05:39:09;;;;;;;0.20;0.20;;;10.40;91.60;;;;;;5097490;28;20040;-76
2023/11/05 05:41:34;;;;;;;0.40;0.38;;;10.40;91.60;;;;;;5063059;28;20473;-76
2023/11/05 05:44:00;;;;;;;0.30;0.20;;;10.40;91.60;;;;;;5096220;28;20141;-76
2023/11/05 05:46:26;;;;;;;0.20;0.20;;;10.40;91.60;;;;;;5113892;28;20081;-76
2023/11/05 05:48:51;;;;;;;0.17;0.17;;;10.40;91.60;;;;;;5095688;28;20039;-76
2023/11/05 05:51:17;;;;;;;0.50;0.20;;;10.40;91.60;;;;;;5113550;28;20385;-76
2023/11/05 05:53:43;;;;;;;0.20;0.20;;;10.40;91.60;;;;;;5095210;28;20036;-76
2023/11/05 05:56:09;;;;;;;2.03;0.30;;;10.40;91.60;;;;;;5113330;28;20039;-76
2023/11/05 05:58:35;;;;;;;0.20;0.20;;;10.40;91.60;;;;;;5094913;28;20489;-76
2023/11/05 06:01:01;;;;;;;0.30;0.30;;;10.40;91.60;;;;;;5113783;28;20047;-76
2023/11/05 06:03:27;;;;;;;0.25;0.20;;;10.50;91.60;;;;;;5076799;28;20138;-76
2023/11/05 06:05:52;;;;;;;0.20;0.20;;;10.40;91.60;;;;;;5078223;28;20142;-76
2023/11/05 06:08:18;;;;;;;0.22;0.13;;;10.50;91.60;;;;;;5113510;28;20069;-76
2023/11/05 06:10:44;;;;;;;0.50;0.30;;;10.50;91.60;;;;;;5095379;28;20069;-76
2023/11/05 06:13:09;;;;;;;0.20;0.20;;;10.50;91.60;;;;;;5078215;28;20500;-76
2023/11/05 06:15:36;;;;;;;0.52;0.20;;;10.50;91.60;;;;;;5078078;28;20036;-76
2023/11/05 06:18:02;;;;;;;0.70;0.20;;;10.50;91.60;;;;;;5112780;28;20039;-76
2023/11/05 06:20:28;;;;;;;0.43;0.25;;;10.50;91.60;;;;;;5112901;28;20486;-76
2023/11/05 06:22:55;;;;;;;0.20;0.20;;;10.50;91.60;;;;;;5059310;28;20040;-76
2023/11/05 06:25:21;;;;;;;0.32;0.30;;;10.50;91.60;;;;;;5113214;28;20052;-75
2023/11/05 06:27:47;;;;;;;1.20;0.40;;;10.50;91.60;;;;;;5113422;28;20549;-76
2023/11/05 06:30:14;;;;;;;0.57;0.30;;;10.50;91.60;;;;;;5094349;28;20065;-75
2023/11/05 06:32:39;;;;;;;1.23;0.30;;;10.50;91.60;;;;;;5101285;28;20059;-77
2023/11/05 06:35:07;;;;;;;0.55;0.55;;;10.50;91.60;;;;;;5100169;28;20040;-76
2023/11/05 06:37:33;;;;;;;0.20;0.20;;;10.50;91.60;;;;;;5101886;28;20108;-77
2023/11/05 06:39:59;;;;;;;0.30;0.28;;;10.60;91.60;;;;;;5105971;28;20107;-77
2023/11/05 06:42:25;;;;;;;0.47;0.30;;;10.50;91.60;;;;;;5124613;28;20047;-76
2023/11/05 06:44:51;;;;;;;0.32;0.20;;;10.60;91.70;;;;;;5126544;28;20053;-77
2023/11/05 06:47:17;;;;;;;0.40;0.30;;;10.50;91.60;;;;;;5105817;28;20042;-76
2023/11/05 06:49:42;;;;;;;0.38;0.38;;;10.60;91.60;;;;;;5116253;28;20036;-77
2023/11/05 06:52:08;;;;;;;0.22;0.22;;;10.60;91.60;;;;;;5094906;28;20124;-77
2023/11/05 06:54:34;;;;;;;0.45;0.35;;;10.70;91.60;;;;;;5098136;28;20497;-75
2023/11/05 06:57:01;;;;;;;0.60;0.40;;;10.60;91.60;;;;;;5077342;28;20036;-76
2023/11/05 06:59:26;;;;;;;0.60;0.43;;;10.60;91.60;;;;;;5112197;28;20439;-77
2023/11/05 07:01:52;;;;;;;0.57;0.30;;;10.60;91.60;;;;;;5077202;28;20040;-76
2023/11/05 07:04:18;;;;;;;1.00;0.30;;;10.70;91.60;;;;;;5112247;28;20035;-75
2023/11/05 07:06:45;;;;;;;1.00;0.50;;;10.70;91.60;;;;;;5112358;28;20036;-76
2023/11/05 07:09:12;;;;;;;0.45;0.30;;;10.70;91.60;;;;;;5077222;28;20066;-76
2023/11/05 07:11:38;;;;;;;0.65;0.35;;;10.70;91.60;;;;;;5093928;28;20043;-76
2023/11/05 07:14:04;;;;;;;0.43;0.30;;;10.70;91.60;;;;;;5094301;28;20059;-76
2023/11/05 07:16:30;;;;;;;0.73;0.30;;;10.70;91.60;;;;;;5112339;28;20039;-76
2023/11/05 07:18:56;;;;;;;0.22;0.22;;;10.70;91.60;;;;;;5093856;28;20071;-76
2023/11/05 07:21:22;;;;;;;0.30;0.30;;;10.70;91.60;;;;;;5093791;28;20071;-76
2023/11/05 07:23:48;;;;;;;1.13;0.43;;;10.80;91.60;;;;;;5112628;28;20066;-75
2023/11/05 07:26:14;;;;;;;0.85;0.30;;;10.80;91.60;;;;;;5093748;28;20044;-76
2023/11/05 07:28:40;;;;;;;1.52;0.40;;;10.80;91.60;;;;;;5077130;28;20052;-76
2023/11/05 07:31:06;;;;;;;0.22;0.22;;;10.80;91.60;;;;;;5076954;28;20040;-76
2023/11/05 07:33:31;;;;;;;1.10;0.30;;;10.80;91.60;;;;;;5112171;28;20032;-76
2023/11/05 07:35:59;;;;;;;0.38;0.30;;;10.80;91.60;;;;;;5114081;28;20046;-76
2023/11/05 07:38:26;;;;;;;0.47;0.35;;;10.80;91.60;;;;;;5096544;28;20047;-76
2023/11/05 07:40:52;;;;;;;1.05;0.45;;;10.80;91.60;;;;;;5097874;28;20181;-75
2023/11/05 07:43:18;;;;;;;0.25;0.25;;;10.90;91.60;;;;;;5063560;28;20516;-76
2023/11/05 07:45:44;;;;;;;1.02;0.50;;;10.90;91.70;;;;;;5097173;28;20036;-76
2023/11/05 07:48:10;;;;;;;0.35;0.30;;;10.90;91.60;;;;;;5096098;28;20051;-76
2023/11/05 07:50:36;;;;;;;0.63;0.38;;;10.90;91.60;;;;;;5115331;28;20039;-75
2023/11/05 07:53:01;;;;;;;0.30;0.30;;;11.00;91.60;;;;;;5080311;28;20027;-76
2023/11/05 07:55:27;;;;;;;0.40;0.30;;;11.00;91.60;;;;;;5079835;28;20044;-76
2023/11/05 07:57:53;;;;;;;1.40;0.43;;;10.90;91.60;;;;;;5097017;28;20050;-76
2023/11/05 08:00:19;;;;;;;0.65;0.45;;;11.00;91.60;;;;;;5095056;28;20398;-76
2023/11/05 08:02:47;;;;;;;1.35;0.43;;;10.90;91.60;;;;;;5079696;28;20047;-76
2023/11/05 08:05:13;;;;;;;0.40;0.25;;;11.00;91.70;;;;;;5096717;28;20410;-76
2023/11/05 08:07:39;;;;;;;0.85;0.43;;;10.90;91.70;;;;;;5079656;28;20135;-77
2023/11/05 08:10:06;;;;;;;0.40;0.40;;;10.90;91.70;;;;;;5097003;28;20043;-76
2023/11/05 08:12:32;;;;;;;0.30;0.30;;;11.00;92.00;;;;;;5079793;28;20035;-76
2023/11/05 08:14:59;;;;;;;0.75;0.30;;;11.00;91.70;;;;;;5095915;28;20371;-76
2023/11/05 08:17:24;;;;;;;0.50;0.50;;;11.00;91.70;;;;;;5114812;28;20072;-76
2023/11/05 08:19:50;;;;;;;1.00;0.50;;;11.00;91.70;;;;;;5077714;28;20067;-76
2023/11/05 08:22:18;;;;;;;0.68;0.40;;;11.00;91.80;;;;;;5115089;28;20047;-76
2023/11/05 08:24:44;;;;;;;0.40;0.40;;;11.00;91.70;;;;;;5096369;28;20087;-76
2023/11/05 08:27:10;;;;;;;0.77;0.40;;;11.00;91.70;;;;;;5114752;28;20050;-76
2023/11/05 08:29:39;;;;;;;1.48;0.50;;;11.10;91.70;;;;;;5096502;28;20039;-76
2023/11/05 08:32:06;;;;;;;1.20;0.40;;;11.10;91.70;;;;;;5094151;28;20397;-76
2023/11/05 08:34:33;;;;;;;0.50;0.40;;;11.00;91.70;;;;;;5097184;28;20038;-76
2023/11/05 08:36:59;;;;;;;1.58;0.60;;;11.00;91.70;;;;;;5078608;28;20036;-76
2023/11/05 08:39:27;;;;;;;1.00;0.43;;;11.10;91.70;;;;;;5079325;28;20047;-76
2023/11/05 08:41:54;;;;;;;2.13;0.57;;;11.10;91.70;;;;;;5094323;28;20097;-77
2023/11/05 08:44:20;;;;;;;1.40;0.60;;;11.10;91.70;;;;;;5096196;28;20122;-76
2023/11/05 08:46:46;;;;;;;0.47;0.47;;;11.10;91.70;;;;;;5079536;28;20086;-76
2023/11/05 08:49:12;;;;;;;0.85;0.40;;;11.00;91.60;;;;;;5096008;28;20548;-76
2023/11/05 08:51:38;;;;;;;0.68;0.57;;;11.20;91.70;;;;;;5077493;28;20067;-76
2023/11/05 08:54:04;;;;;;;1.15;0.63;;;11.20;91.70;;;;;;5095785;28;20051;-76
2023/11/05 08:56:30;;;;;;;1.38;0.50;;;11.20;91.70;;;;;;5114388;28;20043;-76
2023/11/05 08:58:56;;;;;;;1.10;0.50;;;11.20;91.70;;;;;;5114671;28;20122;-75
2023/11/05 09:01:21;;;;;;;1.45;0.40;;;11.20;91.70;;;;;;5095771;28;20040;-75
2023/11/05 09:03:48;;;;;;;0.85;0.47;;;11.30;91.70;;;;;;5095698;28;20096;-76
2023/11/05 09:06:15;;;;;;;1.95;0.40;;;11.30;91.70;;;;;;5062188;28;20129;-75
2023/11/05 09:08:41;;;;;;;1.38;0.52;;;11.30;91.60;;;;;;5095807;28;20088;-74
2023/11/05 09:11:08;;;;;;;0.82;0.47;;;11.40;91.60;;;;;;5114178;28;20036;-76
2023/11/05 09:13:35;;;;;;;0.60;0.43;;;11.40;91.60;;;;;;5062324;28;20039;-75
2023/11/05 09:16:02;;;;;;;0.95;0.63;;;11.40;91.60;;;;;;5062799;28;20036;-74
2023/11/05 09:18:28;;;;;;;2.53;0.60;;;11.50;91.60;;;;;;5114030;28;20047;-75
2023/11/05 09:20:56;;;;;;;1.70;0.65;;;11.50;91.60;;;;;;5113957;28;20043;-74
2023/11/05 09:23:23;;;;;;;2.03;0.70;;;11.50;91.50;;;;;;5079411;28;20507;-74
2023/11/05 09:25:49;;;;;;;0.85;0.60;;;11.50;91.50;;;;;;5078042;28;20135;-74
2023/11/05 09:28:16;;;;;;;2.17;0.68;;;11.50;91.50;;;;;;5113765;28;20067;-75
2023/11/05 09:30:42;;;;;;;2.47;0.88;;;11.50;91.50;;;;;;5096136;28;20085;-73
2023/11/05 09:33:09;;;;;;;2.13;0.90;;;11.50;91.50;;;;;;5113785;28;20118;-75
2023/11/05 09:35:34;;;;;;;0.82;0.43;;;11.50;91.50;;;;;;5095493;28;20046;-74
2023/11/05 09:38:02;;;;;;;2.67;0.70;;;11.50;91.50;;;;;;5061685;28;20043;-74
2023/11/05 09:40:27;;;;;;;0.93;0.65;;;11.50;91.50;;;;;;5095666;28;20039;-74
2023/11/05 09:42:58;;;;;;;2.42;0.73;;;11.50;91.60;;;;;;5095288;28;20070;-75
2023/11/05 09:45:28;;;;;;;1.80;0.90;;;11.50;91.60;;;;;;5078019;28;20031;-74
2023/11/05 09:47:56;;;;;;;2.58;0.70;;;11.50;91.60;;;;;;5113446;28;20454;-74
2023/11/05 09:50:24;;;;;;;1.83;0.80;;;11.60;91.70;;;;;;5094725;28;20050;-74
2023/11/05 09:52:50;;;;;;;2.05;0.98;;;11.50;91.60;;;;;;5095265;28;20059;-74
2023/11/05 09:55:16;;;;;;;2.65;0.70;;;11.50;91.60;;;;;;5095667;28;20043;-74
2023/11/05 09:57:41;;;;;;;1.92;0.90;;;11.60;91.60;;;;;;5094545;28;20040;-74
2023/11/05 10:00:09;;;;;;;1.27;0.68;;;11.60;91.60;;;;;;5094974;28;20468;-75
2023/11/05 10:02:57;;;;;;;1.67;0.88;;;11.70;91.60;;;;;;5095706;28;20047;-74
2023/11/05 10:05:26;;;;;;;0.60;0.60;;;11.60;91.60;;;;;;5094241;28;20138;-75
2023/11/05 10:07:53;;;;;;;1.98;0.75;;;11.70;91.60;;;;;;5077908;28;20042;-74
2023/11/05 10:10:19;;;;;;;1.33;0.73;;;11.70;91.90;;;;;;5113670;28;20058;-76
2023/11/05 10:12:45;;;;;;;1.73;0.77;;;11.70;91.60;;;;;;5093248;28;20123;-75
2023/11/05 10:15:11;;;;;;;0.60;0.52;;;11.70;91.60;;;;;;5061380;28;20134;-76
2023/11/05 10:17:37;;;;;;;1.08;0.70;;;11.60;91.60;;;;;;5093715;28;20036;-77
2023/11/05 10:20:03;;;;;;;0.82;0.57;;;11.60;91.60;;;;;;5094943;28;20470;-76
2023/11/05 10:22:29;;;;;;;0.90;0.60;;;11.60;91.70;;;;;;5094840;28;20047;-77
2023/11/05 10:24:55;;;;;;;0.85;0.70;;;11.60;92.00;;;;;;5112979;28;20040;-76
2023/11/05 10:27:32;;;;;;;1.10;0.80;;;11.70;91.80;;;;;;5094444;28;20055;-77
2023/11/05 10:29:59;;;;;;;2.45;0.52;;;11.50;91.80;;;;;;5095310;28;20489;-77
2023/11/05 10:32:27;;;;;;;1.35;0.60;;;11.60;91.80;;;;;;5095262;28;20028;-76
2023/11/05 10:34:55;;;;;;;1.67;0.70;;;11.50;91.90;;;;;;5113110;28;20044;-78
2023/11/05 10:37:21;;;;;;;3.80;0.95;;;11.50;91.90;;;;;;5078532;28;20032;-76
2023/11/05 10:39:47;;;;;;;2.97;0.68;;;11.40;91.90;;;;;;5077697;28;20039;-78
2023/11/05 10:42:14;;;;;;;1.00;0.80;;;11.40;92.00;;;;;;5094412;28;20123;-77
2023/11/05 10:44:44;;;;;;;0.77;0.70;;;11.40;92.00;;;;;;5093581;28;20044;-77
2023/11/05 10:47:12;;;;;;;1.20;0.73;;;11.40;92.00;;;;;;5094409;28;20096;-77
2023/11/05 10:49:39;;;;;;;1.42;0.90;;;11.40;92.10;;;;;;5113095;28;20042;-76
2023/11/05 10:52:08;;;;;;;1.00;0.65;;;11.40;92.10;;;;;;5094297;28;20039;-76
2023/11/05 10:54:34;;;;;;;1.52;0.73;;;11.30;92.10;;;;;;5112612;28;20040;-76
2023/11/05 10:57:00;;;;;;;2.15;1.00;;;11.40;92.10;;;;;;5076769;28;20059;-76
2023/11/05 10:59:37;;;;;;;1.30;0.80;;;11.30;92.10;;;;;;5059665;28;20044;-76
2023/11/05 11:02:06;;;;;;;2.03;0.90;;;11.30;92.10;;;;;;5112956;28;20035;-76
2023/11/05 11:04:32;;;;;;;1.15;0.90;;;11.30;92.10;;;;;;5094585;28;20517;-77
2023/11/05 11:06:58;;;;;;;1.50;1.00;;;11.30;92.10;;;;;;5094496;28;20082;-77
2023/11/05 11:09:27;;;;;;;1.13;0.82;;;11.30;92.10;;;;;;5112956;28;20067;-76
2023/11/05 11:11:55;;;;;;;1.00;0.90;;;11.30;92.10;;;;;;5079903;28;20052;-76
2023/11/05 11:14:24;;;;;;;1.80;1.00;;;11.30;92.10;;;;;;5116211;28;20044;-76
2023/11/05 11:16:50;;;;;;;1.25;0.80;;;11.30;92.10;;;;;;5098494;28;20112;-76
2023/11/05 11:19:18;;;;;;;1.30;0.77;;;11.30;92.10;;;;;;5097904;28;20035;-76
2023/11/05 11:21:59;;;;;;;1.92;0.90;;;11.40;92.10;;;;;;5116938;28;20050;-76
2023/11/05 11:24:37;;;;;;;0.93;0.82;;;11.40;92.10;;;;;;5083174;28;20132;-76
2023/11/05 11:27:05;;;;;;;1.25;0.70;;;11.40;92.00;;;;;;5099452;28;20039;-77
2023/11/05 11:29:34;;;;;;;1.65;1.00;;;11.40;92.10;;;;;;5065572;28;20073;-75
2023/11/05 11:32:00;;;;;;;1.38;0.75;;;11.40;92.00;;;;;;5097856;28;20032;-75
2023/11/05 11:34:26;;;;;;;1.27;0.95;;;11.40;92.00;;;;;;5081083;28;20063;-75
2023/11/05 11:37:07;;;;;;;1.65;0.95;;;11.40;92.10;;;;;;5081621;28;20035;-76
2023/11/05 11:39:33;;;;;;;2.63;0.98;;;11.40;92.00;;;;;;5080676;28;20122;-76
2023/11/05 11:42:00;;;;;;;1.67;0.80;;;11.40;92.10;;;;;;5115770;28;20039;-76
2023/11/05 11:44:26;;;;;;;0.95;0.80;;;11.40;92.10;;;;;;5115822;28;20485;-76
2023/11/05 11:46:52;;;;;;;0.70;0.70;;;11.40;92.10;;;;;;5117135;28;20050;-76
2023/11/05 11:49:18;;;;;;;2.45;0.80;;;11.50;92.10;;;;;;5080696;28;20054;-76
2023/11/05 11:51:44;;;;;;;1.00;0.75;;;11.50;92.10;;;;;;5115956;28;20044;-75
2023/11/05 11:54:10;;;;;;;0.93;0.70;;;11.60;92.00;;;;;;5095150;28;20032;-76
2023/11/05 11:56:38;;;;;;;1.20;0.73;;;11.70;92.00;;;;;;5098020;28;20099;-76
2023/11/05 11:59:05;;;;;;;0.90;0.70;;;11.70;92.00;;;;;;5115356;28;20051;-75
2023/11/05 12:01:32;;;;;;;1.23;0.88;;;11.70;92.00;;;;;;5079056;28;20066;-77
2023/11/05 12:03:59;;;;;;;2.03;0.80;;;11.80;91.90;;;;;;5095301;28;20036;-75
2023/11/05 12:06:27;;;;;;;1.65;0.82;;;11.80;91.90;;;;;;5114988;28;20082;-75
2023/11/05 12:08:54;;;;;;;1.45;0.80;;;11.90;91.80;;;;;;5080907;28;20078;-76
2023/11/05 12:11:22;;;;;;;1.67;0.90;;;12.00;91.80;;;;;;5096479;28;20094;-76
2023/11/05 12:13:48;;;;;;;1.40;0.77;;;12.10;91.80;;;;;;5114961;28;20505;-76
2023/11/05 12:16:17;;;;;;;2.75;0.80;;;12.10;91.70;;;;;;5097292;28;20038;-76
2023/11/05 12:18:44;;;;;;;2.95;0.98;;;12.20;91.60;;;;;;5115331;28;20475;-76
2023/11/05 12:21:11;;;;;;;1.45;0.88;;;12.20;91.60;;;;;;5096375;28;20113;-75
2023/11/05 12:23:38;;;;;;;0.77;0.70;;;12.10;91.60;;;;;;5096872;28;20047;-76
2023/11/05 12:26:05;;;;;;;0.90;0.65;;;12.10;91.60;;;;;;5115255;28;20051;-75
2023/11/05 12:28:32;;;;;;;3.20;0.80;;;12.10;91.60;;;;;;5115581;28;20134;-76
2023/11/05 12:30:59;;;;;;;2.10;0.80;;;12.10;91.60;;;;;;5095970;28;20036;-76
2023/11/05 12:33:26;;;;;;;1.80;0.68;;;12.00;91.60;;;;;;5114887;28;20035;-75
2023/11/05 12:35:52;;;;;;;0.90;0.60;;;12.00;91.70;;;;;;5114855;28;20118;-76
2023/11/05 12:38:18;;;;;;;0.98;0.70;;;11.90;91.70;;;;;;5115199;28;20044;-76
2023/11/05 12:40:45;;;;;;;1.25;0.63;;;11.90;91.80;;;;;;5079711;28;20055;-76
2023/11/05 12:43:11;;;;;;;0.57;0.55;;;11.90;91.80;;;;;;5062650;28;20104;-76